createdAt,value
2019-01-25T00:00:12.595Z,47.50
2019-01-25T00:03:19.091Z,48.10
2019-01-25T00:06:24.294Z,47.70
2019-01-25T00:09:29.243Z,47.60
2019-01-25T00:12:34.228Z,47.60
2019-01-25T00:15:39.156Z,47.90
2019-01-25T00:18:44.086Z,47.90
2019-01-25T00:21:49.059Z,47.80
2019-01-25T00:24:54.073Z,47.90
2019-01-25T00:27:58.994Z,47.70
2019-01-25T00:31:04.047Z,47.80
2019-01-25T00:34:09.072Z,47.90
2019-01-25T00:37:14.082Z,48.00
2019-01-25T00:40:20.084Z,47.50
2019-01-25T00:43:25.023Z,48.30
2019-01-25T00:46:29.931Z,48.30
2019-01-25T00:49:35.964Z,47.90
2019-01-25T00:52:40.844Z,48.00
2019-01-25T00:55:45.734Z,47.50
2019-01-25T00:58:50.694Z,47.70
2019-01-25T01:01:55.601Z,47.50
2019-01-25T01:05:00.683Z,47.30
2019-01-25T01:08:05.906Z,47.50
2019-01-25T01:11:10.768Z,47.20
2019-01-25T01:14:15.675Z,48.50
2019-01-25T01:17:20.710Z,47.20
2019-01-25T01:20:25.670Z,47.50
2019-01-25T01:23:30.637Z,48.00
2019-01-25T01:26:35.588Z,48.10
2019-01-25T01:29:40.548Z,47.60
2019-01-25T01:32:45.432Z,47.20
2019-01-25T01:35:50.325Z,47.10
2019-01-25T01:38:55.220Z,47.20
2019-01-25T01:42:00.108Z,47.00
2019-01-25T01:45:07.149Z,47.40
2019-01-25T01:48:12.102Z,47.10
2019-01-25T01:51:16.938Z,47.80
2019-01-25T01:54:21.858Z,47.80
2019-01-25T01:57:26.734Z,47.30
2019-01-25T02:00:31.574Z,47.20
2019-01-25T02:03:36.477Z,47.20
2019-01-25T02:06:41.318Z,46.30
2019-01-25T02:09:46.191Z,47.30
2019-01-25T02:12:51.276Z,47.30
2019-01-25T02:15:56.764Z,47.20
2019-01-25T02:19:01.646Z,47.40
2019-01-25T02:22:06.677Z,46.80
2019-01-25T02:25:11.602Z,46.90
2019-01-25T02:28:16.568Z,47.50
2019-01-25T02:31:21.476Z,47.20
2019-01-25T02:34:26.315Z,47.50
2019-01-25T02:37:31.182Z,47.70
2019-01-25T02:40:39.279Z,47.50
2019-01-25T02:43:42.671Z,47.20
2019-01-25T02:46:47.658Z,47.50
2019-01-25T02:49:53.277Z,47.50
2019-01-25T02:53:03.750Z,47.40
2019-01-25T02:56:05.564Z,46.40
2019-01-25T02:59:10.602Z,47.60
2019-01-25T03:02:15.550Z,48.40
2019-01-25T03:05:22.062Z,47.60
2019-01-25T03:08:26.922Z,47.40
2019-01-25T03:11:31.793Z,47.60
2019-01-25T03:14:36.712Z,47.20
2019-01-25T03:17:41.662Z,47.40
2019-01-25T03:20:46.523Z,47.50
2019-01-25T03:23:51.447Z,47.50
2019-01-25T03:26:56.376Z,46.70
2019-01-25T03:30:01.390Z,46.80
2019-01-25T03:33:06.879Z,47.00
2019-01-25T03:36:11.803Z,47.60
2019-01-25T03:39:16.659Z,47.80
2019-01-25T03:42:21.488Z,47.90
2019-01-25T03:45:26.730Z,47.60
2019-01-25T03:48:31.623Z,47.80
2019-01-25T03:51:36.473Z,47.50
2019-01-25T03:54:41.330Z,47.60
2019-01-25T03:57:46.558Z,47.70
2019-01-25T04:00:51.550Z,47.10
2019-01-25T04:03:56.527Z,48.10
2019-01-25T04:07:01.546Z,48.00
2019-01-25T04:10:09.570Z,48.40
2019-01-25T04:13:14.444Z,48.10
2019-01-25T04:16:19.309Z,48.30
2019-01-25T04:19:24.176Z,48.70
2019-01-25T04:22:29.063Z,48.50
2019-01-25T04:25:33.897Z,48.90
2019-01-25T04:28:38.774Z,48.40
2019-01-25T04:31:43.708Z,48.50
2019-01-25T04:34:48.529Z,48.50
2019-01-25T04:37:53.725Z,48.30
2019-01-25T04:40:58.609Z,48.90
2019-01-25T04:44:03.509Z,48.70
2019-01-25T04:47:08.374Z,49.10
2019-01-25T04:50:19.348Z,49.30
2019-01-25T04:53:24.381Z,48.90
2019-01-25T04:56:33.960Z,49.30
2019-01-25T04:59:38.941Z,49.20
2019-01-25T05:02:52.325Z,49.10
2019-01-25T05:05:57.208Z,48.60
2019-01-25T05:09:02.124Z,48.70
2019-01-25T05:12:07.347Z,48.30
2019-01-25T05:15:12.282Z,48.60
2019-01-25T05:18:17.129Z,48.60
2019-01-25T05:21:22.237Z,48.30
2019-01-25T05:24:27.147Z,48.20
2019-01-25T05:27:32.042Z,48.70
2019-01-25T05:30:36.962Z,48.30
2019-01-25T05:33:44.603Z,49.00
2019-01-25T05:36:49.448Z,49.00
2019-01-25T05:39:54.446Z,48.60
2019-01-25T05:42:59.334Z,49.00
2019-01-25T05:46:04.295Z,48.90
2019-01-25T05:49:09.150Z,49.00
2019-01-25T05:52:17.354Z,49.80
2019-01-25T05:55:22.863Z,50.40
2019-01-25T05:58:27.728Z,50.40
2019-01-25T06:01:32.654Z,50.50
2019-01-25T06:04:38.992Z,50.50
2019-01-25T06:07:44.129Z,50.80
2019-01-25T06:10:49.148Z,51.30
2019-01-25T06:13:54.901Z,52.00
2019-01-25T06:16:59.754Z,53.60
2019-01-25T06:20:08.041Z,52.90
2019-01-25T06:23:12.957Z,52.80
2019-01-25T06:26:18.802Z,52.50
2019-01-25T06:29:23.725Z,51.70
2019-01-25T06:32:28.617Z,51.80
2019-01-25T06:35:33.478Z,51.00
2019-01-25T06:38:38.299Z,51.10
2019-01-25T06:41:44.157Z,49.90
2019-01-25T06:44:50.365Z,50.30
2019-01-25T06:47:55.198Z,50.60
2019-01-25T06:51:00.051Z,50.60
2019-01-25T06:54:04.938Z,50.80
2019-01-25T06:57:12.519Z,51.10
2019-01-25T07:00:25.822Z,50.80
2019-01-25T07:03:30.810Z,51.30
2019-01-25T07:06:35.734Z,51.40
2019-01-25T07:09:40.599Z,51.00
2019-01-25T07:12:45.516Z,50.60
2019-01-25T07:15:50.346Z,50.70
2019-01-25T07:18:55.198Z,51.30
2019-01-25T07:22:00.045Z,51.40
2019-01-25T07:25:08.113Z,51.60
2019-01-25T07:28:13.128Z,51.20
2019-01-25T07:31:19.126Z,51.20
2019-01-25T07:34:24.054Z,50.50
2019-01-25T07:37:28.968Z,50.20
2019-01-25T07:40:33.926Z,50.10
2019-01-25T07:43:38.844Z,49.00
2019-01-25T07:46:43.704Z,49.50
2019-01-25T07:49:48.619Z,48.30
2019-01-25T07:52:53.574Z,48.40
2019-01-25T07:55:58.509Z,49.20
2019-01-25T07:59:03.511Z,46.80
2019-01-25T08:02:08.421Z,47.00
2019-01-25T08:05:13.561Z,48.30
2019-01-25T08:08:18.495Z,48.60
2019-01-25T08:11:23.438Z,48.50
2019-01-25T08:14:28.266Z,48.50
2019-01-25T08:17:33.115Z,48.70
2019-01-25T08:20:38.091Z,48.90
2019-01-25T08:23:43.243Z,48.10
2019-01-25T08:26:48.203Z,48.20
2019-01-25T08:29:53.088Z,47.40
2019-01-25T08:32:58.056Z,46.30
2019-01-25T08:36:03.023Z,47.10
2019-01-25T08:39:09.033Z,48.10
2019-01-25T08:42:15.611Z,49.10
2019-01-25T08:45:20.386Z,49.90
2019-01-25T08:48:25.220Z,50.90
2019-01-25T08:51:30.188Z,50.40
2019-01-25T08:54:35.893Z,49.50
2019-01-25T08:57:40.954Z,50.40
2019-01-25T09:00:45.841Z,50.70
2019-01-25T09:03:50.711Z,49.80
2019-01-25T09:06:55.590Z,50.50
2019-01-25T09:10:00.560Z,50.90
2019-01-25T09:13:05.521Z,51.50
2019-01-25T09:16:10.400Z,52.10
2019-01-25T09:19:15.241Z,52.40
2019-01-25T09:22:20.087Z,52.50
2019-01-25T09:25:24.958Z,52.30
2019-01-25T09:28:29.894Z,52.00
2019-01-25T09:31:34.719Z,52.20
2019-01-25T09:34:40.562Z,51.50
2019-01-25T09:37:45.458Z,51.80
2019-01-25T09:40:50.274Z,50.90
2019-01-25T09:43:56.131Z,50.40
2019-01-25T09:47:00.994Z,48.10
2019-01-25T09:50:08.949Z,47.30
2019-01-25T09:53:13.854Z,49.00
2019-01-25T09:56:18.709Z,48.70
2019-01-25T09:59:24.122Z,47.10
2019-01-25T10:02:28.986Z,45.80
2019-01-25T10:05:33.853Z,46.40
2019-01-25T10:08:38.732Z,47.10
2019-01-25T10:11:43.608Z,46.60
2019-01-25T10:14:48.959Z,47.10
2019-01-25T10:17:53.902Z,46.90
2019-01-25T10:20:58.833Z,46.20
2019-01-25T10:24:04.584Z,47.20
2019-01-25T10:27:09.439Z,47.60
2019-01-25T10:30:17.437Z,47.70
2019-01-25T10:33:22.323Z,47.20
2019-01-25T10:36:27.205Z,44.40
2019-01-25T10:39:32.048Z,42.80
2019-01-25T10:42:44.119Z,41.80
2019-01-25T10:45:44.045Z,40.20
2019-01-25T10:48:48.951Z,40.90
2019-01-25T10:51:53.814Z,39.90
2019-01-25T10:54:58.666Z,40.40
2019-01-25T10:58:03.589Z,39.30
2019-01-25T11:01:08.452Z,37.20
2019-01-25T11:04:13.308Z,37.70
2019-01-25T11:07:18.216Z,37.70
2019-01-25T11:10:23.055Z,38.20
2019-01-25T11:13:27.927Z,37.80
2019-01-25T11:16:32.758Z,37.40
2019-01-25T11:19:37.683Z,38.50
2019-01-25T11:22:42.541Z,37.00
2019-01-25T11:25:47.370Z,35.70
2019-01-25T11:28:52.230Z,38.10
2019-01-25T11:31:57.118Z,38.00
2019-01-25T11:35:02.055Z,36.70
2019-01-25T11:38:06.948Z,36.70
2019-01-25T11:41:11.888Z,36.70
2019-01-25T11:44:16.874Z,36.30
2019-01-25T11:47:21.758Z,37.20
2019-01-25T11:50:26.790Z,37.00
2019-01-25T11:53:31.628Z,35.90
2019-01-25T11:56:36.590Z,36.70
2019-01-25T11:59:42.581Z,36.40
2019-01-25T12:02:47.453Z,35.50
2019-01-25T12:06:00.009Z,34.80
2019-01-25T12:09:07.753Z,36.40
2019-01-25T12:12:12.598Z,36.00
2019-01-25T12:15:17.769Z,35.30
2019-01-25T12:18:22.656Z,36.70
2019-01-25T12:21:27.554Z,37.00
2019-01-25T12:24:32.417Z,36.70
2019-01-25T12:27:37.491Z,36.80
2019-01-25T12:30:42.556Z,37.00
2019-01-25T12:33:47.767Z,36.90
2019-01-25T12:36:52.697Z,37.30
2019-01-25T12:39:57.556Z,37.20
2019-01-25T12:43:02.405Z,37.40
2019-01-25T12:46:08.040Z,38.60
2019-01-25T12:49:12.891Z,39.10
2019-01-25T12:52:17.745Z,39.30
2019-01-25T12:55:23.919Z,38.90
2019-01-25T12:58:30.721Z,38.80
2019-01-25T13:01:35.507Z,39.50
2019-01-25T13:04:40.421Z,39.20
2019-01-25T13:07:45.351Z,39.70
2019-01-25T13:10:50.257Z,40.40
2019-01-25T13:13:55.121Z,40.90
2019-01-25T13:16:59.980Z,40.00
2019-01-25T13:20:10.480Z,40.00
2019-01-25T13:23:15.342Z,40.80
2019-01-25T13:26:20.207Z,39.40
2019-01-25T13:29:26.278Z,39.80
2019-01-25T13:32:31.491Z,40.20
2019-01-25T13:35:36.462Z,40.40
2019-01-25T13:38:41.364Z,40.20
2019-01-25T13:41:46.222Z,40.80
2019-01-25T13:44:51.962Z,41.20
2019-01-25T13:47:56.878Z,40.90
2019-01-25T13:51:01.771Z,41.20
2019-01-25T13:54:07.780Z,41.90
2019-01-25T13:57:12.734Z,41.60
2019-01-25T14:00:28.636Z,41.90
2019-01-25T14:03:33.568Z,42.40
2019-01-25T14:06:38.535Z,42.70
2019-01-25T14:09:43.454Z,43.40
2019-01-25T14:12:48.334Z,43.70
2019-01-25T14:15:53.483Z,43.20
2019-01-25T14:18:58.362Z,43.70
2019-01-25T14:22:03.189Z,43.70
2019-01-25T14:25:09.966Z,43.70
2019-01-25T14:28:14.834Z,44.30
2019-01-25T14:31:19.682Z,44.70
2019-01-25T14:34:24.602Z,44.80
2019-01-25T14:37:29.457Z,45.30
2019-01-25T14:40:34.334Z,45.40
2019-01-25T14:43:39.222Z,45.40
2019-01-25T14:46:44.142Z,45.40
2019-01-25T14:49:49.951Z,45.60
2019-01-25T14:52:54.797Z,45.30
2019-01-25T14:55:59.656Z,45.70
2019-01-25T14:59:05.664Z,45.50
2019-01-25T15:02:10.522Z,45.40
2019-01-25T15:05:17.122Z,45.40
2019-01-25T15:08:22.070Z,46.20
2019-01-25T15:11:27.001Z,46.10
2019-01-25T15:14:31.898Z,46.80
2019-01-25T15:17:36.776Z,46.40
2019-01-25T15:20:42.818Z,46.50
2019-01-25T15:23:47.694Z,47.10
2019-01-25T15:26:52.698Z,47.20
2019-01-25T15:29:57.746Z,48.30
2019-01-25T15:33:02.609Z,48.50
2019-01-25T15:36:07.574Z,48.40
2019-01-25T15:39:13.129Z,49.20
2019-01-25T15:42:17.975Z,48.80
2019-01-25T15:45:23.349Z,49.40
2019-01-25T15:48:28.247Z,49.40
2019-01-25T15:51:33.083Z,49.60
2019-01-25T15:54:37.897Z,50.10
2019-01-25T15:57:42.775Z,50.10
2019-01-25T16:00:47.646Z,50.60
2019-01-25T16:03:52.520Z,51.00
2019-01-25T16:06:57.456Z,51.60
2019-01-25T16:10:02.386Z,51.20
2019-01-25T16:13:07.239Z,51.50
2019-01-25T16:16:12.194Z,51.80
2019-01-25T16:19:17.068Z,51.90
2019-01-25T16:22:22.010Z,52.00
2019-01-25T16:25:31.615Z,52.10
2019-01-25T16:28:36.523Z,51.40
2019-01-25T16:31:41.447Z,51.40
2019-01-25T16:34:46.294Z,51.00
2019-01-25T16:37:51.126Z,51.30
2019-01-25T16:40:56.003Z,50.70
2019-01-25T16:44:00.835Z,51.00
2019-01-25T16:47:05.675Z,51.00
2019-01-25T16:50:10.898Z,51.50
2019-01-25T16:53:15.825Z,51.20
2019-01-25T16:56:20.686Z,51.60
2019-01-25T16:59:25.541Z,51.40
2019-01-25T17:02:30.397Z,51.30
2019-01-25T17:05:35.629Z,51.30
2019-01-25T17:08:40.590Z,51.50
2019-01-25T17:11:45.539Z,51.90
2019-01-25T17:14:50.402Z,51.60
2019-01-25T17:17:55.302Z,51.90
2019-01-25T17:21:00.171Z,52.10
2019-01-25T17:24:05.018Z,51.70
2019-01-25T17:27:10.632Z,51.50
2019-01-25T17:30:26.667Z,52.40
2019-01-25T17:33:32.525Z,52.20
2019-01-25T17:36:37.460Z,51.90
2019-01-25T17:39:42.362Z,52.00
2019-01-25T17:42:47.215Z,52.60
2019-01-25T17:45:53.007Z,51.80
2019-01-25T17:48:57.944Z,52.10
2019-01-25T17:52:02.824Z,52.50
2019-01-25T17:55:10.478Z,52.80
2019-01-25T17:58:15.360Z,52.60
2019-01-25T18:01:20.202Z,52.20
2019-01-25T18:04:25.118Z,52.90
2019-01-25T18:07:29.993Z,52.60
2019-01-25T18:10:34.880Z,52.50
2019-01-25T18:13:39.750Z,52.70
2019-01-25T18:16:44.615Z,52.50
2019-01-25T18:19:49.581Z,52.70
2019-01-25T18:22:54.819Z,52.80
2019-01-25T18:25:59.846Z,53.30
2019-01-25T18:29:04.844Z,53.60
2019-01-25T18:32:09.706Z,54.30
2019-01-25T18:35:14.558Z,54.00
2019-01-25T18:38:19.569Z,53.40
2019-01-25T18:41:24.922Z,54.00
2019-01-25T18:44:29.902Z,53.90
2019-01-25T18:47:36.137Z,54.00
2019-01-25T18:50:41.191Z,53.70
2019-01-25T18:53:46.120Z,53.60
2019-01-25T18:56:51.061Z,53.40
2019-01-25T18:59:56.242Z,53.70
2019-01-25T19:03:01.114Z,53.60
2019-01-25T19:06:05.949Z,53.10
2019-01-25T19:09:11.245Z,53.10
2019-01-25T19:12:16.072Z,53.20
2019-01-25T19:15:23.982Z,52.80
2019-01-25T19:18:28.820Z,52.60
2019-01-25T19:21:33.678Z,52.80
2019-01-25T19:24:38.538Z,52.90
2019-01-25T19:27:43.394Z,52.60
2019-01-25T19:30:48.288Z,52.60
2019-01-25T19:33:53.168Z,52.40
2019-01-25T19:36:58.919Z,52.00
2019-01-25T19:40:05.624Z,51.30
2019-01-25T19:43:10.511Z,51.20
2019-01-25T19:46:15.368Z,50.70
2019-01-25T19:49:20.229Z,50.20
2019-01-25T19:52:25.063Z,50.00
2019-01-25T19:55:33.918Z,49.00
2019-01-25T19:58:38.760Z,47.60
2019-01-25T20:01:43.690Z,47.80
2019-01-25T20:04:48.591Z,46.80
2019-01-25T20:07:53.447Z,45.90
2019-01-25T20:10:58.280Z,46.00
2019-01-25T20:14:03.140Z,45.50
2019-01-25T20:17:07.998Z,44.90
2019-01-25T20:20:15.757Z,45.50
2019-01-25T20:23:20.619Z,45.20
2019-01-25T20:26:25.584Z,44.70
2019-01-25T20:29:30.555Z,45.60
2019-01-25T20:32:35.423Z,45.90
2019-01-25T20:35:42.481Z,46.00
2019-01-25T20:38:47.362Z,46.30
2019-01-25T20:41:52.212Z,46.00
2019-01-25T20:44:57.062Z,45.80
2019-01-25T20:48:01.982Z,45.10
2019-01-25T20:51:06.835Z,45.40
2019-01-25T20:54:11.709Z,45.20
2019-01-25T20:57:16.558Z,45.50
2019-01-25T21:00:26.824Z,45.50
2019-01-25T21:03:31.726Z,45.60
2019-01-25T21:06:36.582Z,44.80
2019-01-25T21:09:41.442Z,44.30
2019-01-25T21:12:46.651Z,44.80
2019-01-25T21:15:51.485Z,44.20
2019-01-25T21:18:56.341Z,45.10
2019-01-25T21:22:01.258Z,44.20
2019-01-25T21:25:07.052Z,43.90
2019-01-25T21:28:12.443Z,44.20
2019-01-25T21:31:17.337Z,45.10
2019-01-25T21:34:22.200Z,44.70
2019-01-25T21:37:27.059Z,44.40
2019-01-25T21:40:33.467Z,44.70
2019-01-25T21:43:38.330Z,44.40
2019-01-25T21:46:43.158Z,44.40
2019-01-25T21:49:48.006Z,44.90
2019-01-25T21:52:52.883Z,44.40
2019-01-25T21:55:57.746Z,44.80
2019-01-25T21:59:02.619Z,45.20
2019-01-25T22:02:08.850Z,45.20
2019-01-25T22:05:13.876Z,45.00
2019-01-25T22:08:18.727Z,45.50
2019-01-25T22:11:23.825Z,44.60
2019-01-25T22:14:28.660Z,44.90
2019-01-25T22:17:33.602Z,45.00
2019-01-25T22:20:38.440Z,44.80
2019-01-25T22:23:43.278Z,44.80
2019-01-25T22:26:48.111Z,44.60
2019-01-25T22:29:53.022Z,45.40
2019-01-25T22:32:57.917Z,46.40
2019-01-25T22:36:02.758Z,45.30
2019-01-25T22:39:07.990Z,45.40
2019-01-25T22:42:13.086Z,45.10
2019-01-25T22:45:20.393Z,45.80
2019-01-25T22:48:25.289Z,45.20
2019-01-25T22:51:30.125Z,45.60
2019-01-25T22:54:34.974Z,45.60
2019-01-25T22:57:39.878Z,45.80
2019-01-25T23:00:55.104Z,45.60
2019-01-25T23:04:11.635Z,46.00
2019-01-25T23:07:16.626Z,45.30
2019-01-25T23:10:22.215Z,46.20
2019-01-25T23:13:27.142Z,46.20
2019-01-25T23:16:32.014Z,46.80
2019-01-25T23:19:36.843Z,47.00
2019-01-25T23:22:42.441Z,46.70
2019-01-25T23:25:47.277Z,46.90
2019-01-25T23:28:52.158Z,47.10
2019-01-25T23:31:57.117Z,47.00
2019-01-25T23:35:01.944Z,47.30
2019-01-25T23:38:07.773Z,47.50
2019-01-25T23:41:12.644Z,48.20
2019-01-25T23:44:17.566Z,48.90
2019-01-25T23:47:24.324Z,49.80
2019-01-25T23:50:29.198Z,50.00
2019-01-25T23:53:34.052Z,50.30
2019-01-25T23:56:38.892Z,51.00
2019-01-25T23:59:43.761Z,51.20
